createdAt,value
2023-03-26T00:01:48.046Z,94055.28
2023-03-26T00:04:19.991Z,94049.25
2023-03-26T00:06:49.203Z,94056.22
2023-03-26T00:09:18.771Z,94054.59
2023-03-26T00:11:46.917Z,94048.22
2023-03-26T00:14:18.048Z,94047.69
2023-03-26T00:16:45.706Z,94063.69
2023-03-26T00:19:14.075Z,94047.41
2023-03-26T00:21:41.716Z,94049.25
2023-03-26T00:24:15.366Z,94044.97
2023-03-26T00:26:43.144Z,94043.41
2023-03-26T00:29:12.096Z,94020.81
2023-03-26T00:31:40.071Z,94051.41
2023-03-26T00:34:08.636Z,94038.63
2023-03-26T00:36:36.154Z,94037.56
2023-03-26T00:39:06.803Z,94024.56
2023-03-26T00:41:37.325Z,94031.22
2023-03-26T00:44:05.288Z,94036.00
2023-03-26T00:46:32.609Z,94021.88
2023-03-26T00:49:02.044Z,94032.00
2023-03-26T00:51:29.266Z,94036.53
2023-03-26T00:53:58.173Z,94028.00
2023-03-26T00:56:26.104Z,94029.53
2023-03-26T00:58:53.597Z,94034.38
2023-03-26T01:01:29.389Z,94031.88
2023-03-26T01:04:08.333Z,94014.59
2023-03-26T01:06:39.154Z,94023.13
2023-03-26T01:09:17.310Z,94005.53
2023-03-26T01:11:45.163Z,94022.38
2023-03-26T01:14:17.284Z,94022.06
2023-03-26T01:16:52.634Z,94031.09
2023-03-26T01:19:29.395Z,94023.59
2023-03-26T01:21:59.139Z,94029.38
2023-03-26T01:24:26.962Z,94034.13
2023-03-26T01:27:09.859Z,94022.16
2023-03-26T01:29:44.806Z,94020.91
2023-03-26T01:32:33.283Z,94010.44
2023-03-26T01:35:32.763Z,94020.16
2023-03-26T01:38:02.696Z,94016.56
2023-03-26T01:40:43.143Z,94010.38
2023-03-26T01:43:42.178Z,94014.94
2023-03-26T01:46:11.531Z,94010.84
2023-03-26T01:48:42.448Z,94000.00
2023-03-26T01:51:11.893Z,93995.25
2023-03-26T01:53:47.869Z,94011.53
2023-03-26T01:56:26.099Z,94001.22
2023-03-26T01:59:05.088Z,94003.72
2023-03-26T02:02:09.104Z,94002.53
2023-03-26T02:05:01.756Z,94004.66
2023-03-26T02:21:59.962Z,94006.84
2023-03-26T02:24:29.435Z,93998.03
2023-03-26T02:26:58.310Z,94004.44
2023-03-26T02:29:28.877Z,94007.31
2023-03-26T02:31:57.835Z,94003.31
2023-03-26T02:34:32.984Z,94007.31
2023-03-26T02:37:01.029Z,94015.63
2023-03-26T02:39:29.997Z,93998.19
2023-03-26T02:42:02.559Z,94008.63
2023-03-26T02:44:33.174Z,93993.69
2023-03-26T02:47:00.531Z,93993.34
2023-03-26T02:49:46.926Z,93993.31
2023-03-26T02:52:22.037Z,93979.47
2023-03-26T02:54:51.309Z,93994.38
2023-03-26T02:57:24.717Z,93983.13
2023-03-26T03:00:16.970Z,93954.34
2023-03-26T03:02:50.691Z,93968.44
2023-03-26T03:05:34.025Z,93973.00
2023-03-26T03:08:18.537Z,94005.53
2023-03-26T03:11:25.081Z,93996.69
2023-03-26T03:13:54.929Z,93994.41
2023-03-26T03:16:26.047Z,94004.47
2023-03-26T03:18:58.137Z,93995.44
2023-03-26T03:21:37.444Z,93999.94
2023-03-26T03:24:05.381Z,93998.31
2023-03-26T03:26:38.025Z,94005.53
2023-03-26T03:29:33.909Z,93998.03
2023-03-26T03:32:25.917Z,93986.63
2023-03-26T03:34:56.900Z,94001.06
2023-03-26T03:37:27.620Z,93986.91
2023-03-26T03:39:56.149Z,93988.00
2023-03-26T03:42:27.754Z,93992.00
2023-03-26T03:44:57.649Z,93982.94
2023-03-26T03:47:54.742Z,93978.94
2023-03-26T03:50:35.669Z,93969.97
2023-03-26T03:53:20.276Z,93983.56
2023-03-26T03:55:53.704Z,93985.47
2023-03-26T03:58:28.412Z,93991.34
2023-03-26T04:01:04.468Z,93985.78
2023-03-26T04:03:54.072Z,93989.81
2023-03-26T04:06:27.540Z,94001.25
2023-03-26T04:08:55.080Z,93989.28
2023-03-26T04:11:23.277Z,93978.63
2023-03-26T04:14:24.498Z,93993.28
2023-03-26T04:17:00.795Z,93995.69
2023-03-26T04:19:30.526Z,93981.84
2023-03-26T04:22:02.673Z,93993.81
2023-03-26T04:24:40.260Z,93993.28
2023-03-26T04:27:14.904Z,93989.75
2023-03-26T04:29:47.032Z,93999.59
2023-03-26T04:32:30.359Z,93996.91
2023-03-26T04:35:01.552Z,93994.50
2023-03-26T04:37:34.542Z,93986.50
2023-03-26T04:40:14.308Z,93972.13
2023-03-26T04:43:01.066Z,93978.81
2023-03-26T04:45:54.096Z,93976.91
2023-03-26T04:48:28.000Z,93977.72
2023-03-26T04:50:55.973Z,93968.91
2023-03-26T04:53:24.356Z,93979.00
2023-03-26T04:56:26.792Z,93992.34
2023-03-26T04:59:15.032Z,93984.00
2023-03-26T05:01:46.151Z,93982.66
2023-03-26T05:04:15.971Z,93984.97
2023-03-26T05:06:43.898Z,93982.56
2023-03-26T05:09:21.407Z,93971.78
2023-03-26T05:12:07.624Z,93969.81
2023-03-26T05:14:46.249Z,93976.06
2023-03-26T05:17:21.529Z,93979.72
2023-03-26T05:19:49.288Z,93968.56
2023-03-26T05:22:17.755Z,93978.19
2023-03-26T05:25:05.565Z,93977.38
2023-03-26T05:27:33.712Z,93980.06
2023-03-26T05:30:02.084Z,94000.81
2023-03-26T05:32:34.092Z,93992.81
2023-03-26T05:35:02.226Z,93997.31
2023-03-26T05:37:31.218Z,93990.94
2023-03-26T05:40:04.432Z,93994.69
2023-03-26T05:42:51.503Z,93999.97
2023-03-26T09:27:28.431Z,93947.63
2023-03-26T09:30:15.757Z,93939.47
2023-03-26T09:33:21.165Z,93921.75
2023-03-26T09:35:57.364Z,93928.75
2023-03-26T09:38:45.280Z,93943.50
2023-03-26T09:41:43.933Z,93934.91
2023-03-26T09:44:35.718Z,93937.56
2023-03-26T09:47:37.636Z,93931.41
2023-03-26T09:50:20.105Z,93946.72
2023-03-26T09:52:55.658Z,93953.47
2023-03-26T09:55:29.709Z,93956.66
2023-03-26T09:58:00.514Z,93943.94
2023-03-26T10:00:42.795Z,93948.25
2023-03-26T10:03:44.476Z,93944.34
2023-03-26T10:06:35.756Z,93951.28
2023-03-26T10:09:20.992Z,93943.03
2023-03-26T10:12:06.410Z,93945.28
2023-03-26T10:14:51.088Z,93944.06
2023-03-26T10:17:43.984Z,93934.91
2023-03-26T10:20:50.791Z,93926.53
2023-03-26T10:23:49.952Z,93934.88
2023-03-26T10:26:39.156Z,93937.28
2023-03-26T10:29:38.378Z,93935.69
2023-03-26T10:32:31.885Z,93896.91
2023-03-26T10:35:20.740Z,93933.41
2023-03-26T10:38:26.496Z,93924.28
2023-03-26T10:41:15.358Z,93943.22
2023-03-26T10:44:05.573Z,93921.59
2023-03-26T10:46:50.634Z,93904.75
2023-03-26T10:50:02.646Z,93933.44
2023-03-26T10:52:38.040Z,93939.53
2023-03-26T10:55:38.014Z,93916.47
2023-03-26T10:58:24.456Z,93906.66
2023-03-26T11:01:05.925Z,93925.78
2023-03-26T11:03:53.282Z,93918.63
2023-03-26T11:06:31.031Z,93914.34
2023-03-26T11:09:03.667Z,93914.28
2023-03-26T11:11:51.492Z,93919.88
2023-03-26T11:14:35.145Z,93915.44
2023-03-26T11:17:40.678Z,93905.25
2023-03-26T11:20:16.933Z,93903.59
2023-03-26T11:23:02.933Z,93892.38
2023-03-26T11:25:32.993Z,93892.53
2023-03-26T11:28:39.048Z,93890.03
2023-03-26T11:31:18.706Z,93897.63
2023-03-26T11:33:53.053Z,93888.97
2023-03-26T11:36:36.758Z,93880.50
2023-03-26T11:39:10.549Z,93865.88
2023-03-26T11:41:38.028Z,93895.91
2023-03-26T11:44:34.567Z,93882.00
2023-03-26T11:47:08.949Z,93865.31
2023-03-26T11:49:37.757Z,93872.03
2023-03-26T11:52:05.405Z,93862.22
2023-03-26T11:54:33.971Z,93858.16
2023-03-26T11:57:08.634Z,93866.00
2023-03-26T11:59:56.983Z,93882.13
2023-03-26T12:02:24.932Z,93869.78
2023-03-26T12:04:57.272Z,93867.72
2023-03-26T12:07:34.897Z,93866.09
2023-03-26T12:10:19.013Z,93870.88
2023-03-26T12:12:48.496Z,93866.88
2023-03-26T12:15:21.520Z,93864.03
2023-03-26T12:17:53.750Z,93849.22
2023-03-26T12:20:32.469Z,93858.94
2023-03-26T12:23:03.126Z,93848.63
2023-03-26T12:25:35.620Z,93862.34
2023-03-26T12:28:13.361Z,93857.97
2023-03-26T12:30:45.199Z,93827.84
2023-03-26T12:33:26.342Z,93844.16
2023-03-26T12:35:58.505Z,93815.50
2023-03-26T12:38:30.530Z,93834.56
2023-03-26T12:44:43.383Z,93815.69
2023-03-26T12:44:49.866Z,93819.19
2023-03-26T12:47:58.101Z,93793.00
2023-03-26T12:50:14.772Z,93815.38
2023-03-26T12:53:15.088Z,93786.22
2023-03-26T12:56:00.730Z,93796.06
2023-03-26T12:58:51.574Z,93806.13
2023-03-26T13:01:36.279Z,93797.97
2023-03-26T13:04:30.266Z,93802.34
2023-03-26T13:07:22.211Z,93800.66
2023-03-26T13:10:10.985Z,93792.69
2023-03-26T13:12:58.468Z,93796.72
2023-03-26T13:15:36.704Z,93801.97
2023-03-26T13:18:31.937Z,93784.03
2023-03-26T13:21:02.179Z,93772.03
2023-03-26T13:23:48.762Z,93765.59
2023-03-26T13:26:28.584Z,93761.44
2023-03-26T13:29:34.195Z,93752.09
2023-03-26T13:32:20.516Z,93740.19
2023-03-26T13:35:08.247Z,93736.34
2023-03-26T13:38:04.706Z,93747.38
2023-03-26T13:40:40.743Z,93740.91
2023-03-26T13:43:23.902Z,93745.72
2023-03-26T13:45:56.437Z,93736.94
2023-03-26T13:48:28.691Z,93735.13
2023-03-26T13:51:02.462Z,93738.84
2023-03-26T13:53:42.140Z,93726.50
2023-03-26T13:56:15.011Z,93724.53
2023-03-26T13:58:48.973Z,93733.34
2023-03-26T14:01:22.566Z,93730.84
2023-03-26T14:04:06.990Z,93728.44
2023-03-26T14:06:47.908Z,93747.34
2023-03-26T14:09:32.765Z,93720.22
2023-03-26T14:12:22.083Z,93727.53
2023-03-26T14:14:59.444Z,93710.53
2023-03-26T14:17:46.689Z,93718.81
2023-03-26T14:20:32.049Z,93721.63
2023-03-26T14:23:17.742Z,93727.84
2023-03-26T14:26:10.804Z,93733.06
2023-03-26T14:29:13.994Z,93728.78
2023-03-26T14:31:56.861Z,93720.34
2023-03-26T14:34:45.681Z,93712.75
2023-03-26T14:37:58.768Z,93700.38
2023-03-26T14:40:44.185Z,93717.69
2023-03-26T14:43:47.184Z,93712.97
2023-03-26T14:46:37.908Z,93694.09
2023-03-26T14:49:40.529Z,93705.34
2023-03-26T14:52:13.806Z,93715.00
2023-03-26T14:54:49.687Z,93701.72
2023-03-26T14:57:55.700Z,93702.81
2023-03-26T15:01:04.013Z,93692.97
2023-03-26T15:04:20.109Z,93696.22
2023-03-26T15:06:59.680Z,93700.94
2023-03-26T15:09:55.773Z,93698.06
2023-03-26T15:13:17.708Z,93692.34
2023-03-26T15:16:38.887Z,93692.38
2023-03-26T15:19:30.637Z,93696.47
2023-03-26T15:22:49.221Z,93686.16
2023-03-26T15:25:48.072Z,93675.88
2023-03-26T15:28:53.575Z,93679.66
2023-03-26T15:31:47.928Z,93687.13
2023-03-26T15:34:45.087Z,93679.97
2023-03-26T15:37:34.514Z,93672.03
2023-03-26T15:40:40.582Z,93668.38
2023-03-26T15:43:19.454Z,93668.09
2023-03-26T15:46:27.002Z,93663.38
2023-03-26T15:49:05.536Z,93664.16
2023-03-26T15:52:20.421Z,93659.25
2023-03-26T15:55:14.650Z,93661.47
2023-03-26T15:58:02.557Z,93657.03
2023-03-26T16:00:36.419Z,93659.97
2023-03-26T16:03:13.188Z,93664.84
2023-03-26T16:05:48.000Z,93654.03
2023-03-26T16:08:25.744Z,93659.69
2023-03-26T16:11:04.362Z,93666.50
2023-03-26T16:13:41.681Z,93667.88
2023-03-26T16:16:16.398Z,93664.13
2023-03-26T16:18:47.006Z,93642.22
2023-03-26T16:21:36.791Z,93657.69
2023-03-26T16:24:07.543Z,93659.44
2023-03-26T16:26:54.701Z,93654.28
2023-03-26T16:29:27.271Z,93647.00
2023-03-26T16:32:10.085Z,93638.97
2023-03-26T16:34:49.491Z,93656.03
2023-03-26T16:37:38.052Z,93660.59
2023-03-26T16:40:23.771Z,93646.34
2023-03-26T16:43:06.595Z,93650.38
2023-03-26T16:45:55.526Z,93648.66
2023-03-26T16:48:27.845Z,93653.88
2023-03-26T16:51:10.619Z,93654.72
2023-03-26T16:53:52.146Z,93650.78
2023-03-26T16:56:48.947Z,93659.16
2023-03-26T17:00:05.203Z,93649.66
2023-03-26T17:02:52.555Z,93646.50
2023-03-26T17:05:34.364Z,93658.16
2023-03-26T17:08:36.265Z,93655.69
2023-03-26T17:11:18.920Z,93650.22
2023-03-26T17:14:30.544Z,93651.19
2023-03-26T17:17:37.012Z,93662.88
2023-03-26T17:20:33.453Z,93649.41
2023-03-26T17:23:05.760Z,93657.78
2023-03-26T17:26:00.028Z,93657.22
2023-03-26T17:29:06.345Z,93663.75
2023-03-26T17:31:45.069Z,93655.38
2023-03-26T17:34:46.747Z,93650.13
2023-03-26T17:37:17.077Z,93651.28
2023-03-26T17:39:46.941Z,93646.09
2023-03-26T17:42:25.218Z,93645.66
2023-03-26T17:44:57.865Z,93652.63
2023-03-26T17:47:47.140Z,93650.09
2023-03-26T17:50:18.540Z,93659.19
2023-03-26T17:53:33.738Z,93650.47
2023-03-26T17:56:06.756Z,93660.00
2023-03-26T17:58:58.821Z,93655.16
2023-03-26T18:01:41.586Z,93659.13
2023-03-26T18:04:19.779Z,93654.28
2023-03-26T18:07:00.726Z,93654.00
2023-03-26T18:09:43.398Z,93644.47
2023-03-26T18:12:38.173Z,93650.09
2023-03-26T18:15:36.302Z,93647.00
2023-03-26T18:18:20.104Z,93647.94
2023-03-26T18:20:49.854Z,93644.34
2023-03-26T18:23:34.656Z,93646.78
2023-03-26T18:26:20.265Z,93639.28
2023-03-26T18:28:54.545Z,93627.06
2023-03-26T18:31:26.566Z,93643.75
2023-03-26T18:34:03.477Z,93640.78
2023-03-26T18:36:31.256Z,93632.28
2023-03-26T18:38:59.820Z,93641.31
2023-03-26T18:41:42.029Z,93639.13
2023-03-26T18:44:18.174Z,93649.47
2023-03-26T18:46:46.170Z,93652.63
2023-03-26T18:49:16.196Z,93636.88
2023-03-26T18:51:56.160Z,93620.84
2023-03-26T18:54:30.160Z,93620.84
2023-03-26T18:56:59.123Z,93617.88
2023-03-26T18:59:35.288Z,93618.09
2023-03-26T19:02:07.032Z,93625.16
2023-03-26T19:04:37.073Z,93613.56
2023-03-26T19:07:08.698Z,93611.44
2023-03-26T19:09:37.662Z,93624.41
2023-03-26T19:12:08.836Z,93610.53
2023-03-26T19:15:02.524Z,93610.31
2023-03-26T19:17:34.701Z,93605.25
2023-03-26T19:20:03.824Z,93600.47
2023-03-26T19:22:31.684Z,93602.66
2023-03-26T19:25:02.218Z,93579.25
2023-03-26T19:27:29.659Z,93598.19
2023-03-26T19:29:58.130Z,93594.72
2023-03-26T19:32:34.793Z,93570.59
2023-03-26T19:35:04.617Z,93584.09
2023-03-26T19:37:32.605Z,93578.69
2023-03-26T19:40:14.441Z,93584.97
2023-03-26T19:42:45.010Z,93573.25
2023-03-26T19:45:20.646Z,93576.28
2023-03-26T19:47:57.331Z,93581.03
2023-03-26T19:50:34.434Z,93583.06
2023-03-26T19:53:19.048Z,93581.16
2023-03-26T19:55:58.121Z,93584.16
2023-03-26T19:58:27.355Z,93595.84
2023-03-26T20:00:56.652Z,93578.88
2023-03-26T20:03:30.508Z,93565.63
2023-03-26T20:05:58.264Z,93563.34
2023-03-26T20:08:28.472Z,93576.81
2023-03-26T20:10:57.387Z,93577.34
2023-03-26T20:13:24.982Z,93564.56
2023-03-26T20:16:05.727Z,93577.03
2023-03-26T20:18:35.005Z,93570.19
2023-03-26T20:21:08.942Z,93551.50
2023-03-26T20:23:36.288Z,93566.97
2023-03-26T20:26:03.842Z,93559.97
2023-03-26T20:28:38.742Z,93548.41
2023-03-26T20:31:26.915Z,93548.84
2023-03-26T20:33:54.787Z,93536.25
2023-03-26T20:36:33.965Z,93536.75
2023-03-26T20:39:08.191Z,93531.41
2023-03-26T20:41:43.060Z,93516.88
2023-03-26T20:44:15.879Z,93513.06
2023-03-26T20:46:44.886Z,93497.59
2023-03-26T20:49:12.791Z,93496.59
2023-03-26T20:51:49.155Z,93483.75
2023-03-26T20:54:21.731Z,93471.66
2023-03-26T20:56:50.288Z,93471.84
2023-03-26T20:59:22.502Z,93467.66
2023-03-26T21:01:51.504Z,93454.00
2023-03-26T21:04:20.901Z,93445.91
2023-03-26T21:06:49.484Z,93430.03
2023-03-26T21:09:19.407Z,93426.19
2023-03-26T21:12:00.886Z,93416.59
2023-03-26T21:14:41.550Z,93421.03
2023-03-26T21:17:21.164Z,93419.44
2023-03-26T21:19:49.555Z,93430.31
2023-03-26T21:22:34.475Z,93430.41
2023-03-26T21:25:11.916Z,93424.47
2023-03-26T21:27:58.416Z,93429.22
2023-03-26T21:30:26.258Z,93425.06
2023-03-26T21:32:54.511Z,93417.91
2023-03-26T21:35:22.395Z,93430.41
2023-03-26T21:37:50.993Z,93427.63
2023-03-26T21:40:19.436Z,93416.88
2023-03-26T21:42:50.726Z,93415.28
2023-03-26T21:45:19.255Z,93408.34
2023-03-26T21:47:47.298Z,93407.03
2023-03-26T21:50:21.957Z,93400.91
2023-03-26T21:52:51.226Z,93406.47
2023-03-26T21:55:21.960Z,93412.31
2023-03-26T21:58:08.533Z,93424.88
2023-03-26T22:01:03.924Z,93407.44
2023-03-26T22:03:50.662Z,93397.34
2023-03-26T22:06:51.499Z,93414.78
2023-03-26T22:09:26.375Z,93411.19
2023-03-26T22:12:02.258Z,93417.09
2023-03-26T22:14:29.700Z,93410.97
2023-03-26T22:17:05.542Z,93411.38
2023-03-26T22:19:36.212Z,93407.94
2023-03-26T22:22:09.126Z,93414.38
2023-03-26T22:24:38.647Z,93410.09
2023-03-26T22:27:07.450Z,93409.81
2023-03-26T22:29:34.711Z,93402.59
2023-03-26T22:32:03.730Z,93396.69
2023-03-26T22:34:32.019Z,93398.25
2023-03-26T22:37:00.433Z,93386.28
2023-03-26T22:39:27.694Z,93388.56
2023-03-26T22:41:58.079Z,93382.72
2023-03-26T22:44:25.711Z,93382.44
2023-03-26T22:46:54.656Z,93382.50
2023-03-26T22:49:21.929Z,93364.19
2023-03-26T22:51:50.559Z,93361.34
2023-03-26T22:54:18.179Z,93366.78
2023-03-26T22:56:46.005Z,93361.63
2023-03-26T22:59:13.538Z,93361.84
2023-03-26T23:01:41.643Z,93343.75
2023-03-26T23:04:09.080Z,93356.31
2023-03-26T23:06:37.124Z,93361.66
2023-03-26T23:09:07.274Z,93361.16
2023-03-26T23:11:35.106Z,93360.94
2023-03-26T23:14:02.625Z,93359.00
2023-03-26T23:16:31.932Z,93359.50
2023-03-26T23:18:59.360Z,93363.94
2023-03-26T23:21:27.109Z,93351.94
2023-03-26T23:23:57.364Z,93366.00
2023-03-26T23:26:25.013Z,93360.94
2023-03-26T23:28:52.579Z,93335.81
2023-03-26T23:31:22.559Z,93348.50
2023-03-26T23:33:50.512Z,93347.69
2023-03-26T23:36:19.589Z,93344.25
2023-03-26T23:38:48.559Z,93351.16
2023-03-26T23:41:18.852Z,93342.66
2023-03-26T23:43:55.758Z,93343.25
2023-03-26T23:46:30.499Z,93341.97
2023-03-26T23:49:00.352Z,93344.75
2023-03-26T23:51:30.391Z,93337.22
2023-03-26T23:53:57.887Z,93322.06
2023-03-26T23:56:27.848Z,93331.34
2023-03-26T23:58:55.366Z,93317.97
